sensor_id;sensor_type;location;lat;lon;timestamp;pressure;altitude;pressure_sealevel;temperature;humidity
41945;BME280;63122;52.424;13.458;2023-02-16T00:00:20;101731.09;;;3.96;100.00
41945;BME280;63122;52.424;13.458;2023-02-16T00:02:36;101735.88;;;3.88;100.00
41945;BME280;63122;52.424;13.458;2023-02-16T00:04:32;101734.28;;;3.85;100.00
41945;BME280;63122;52.424;13.458;2023-02-16T00:06:34;101739.91;;;3.78;100.00
41945;BME280;63122;52.424;13.458;2023-02-16T00:08:30;101735.59;;;3.77;100.00
41945;BME280;63122;52.424;13.458;2023-02-16T00:10:31;101729.72;;;3.73;100.00
41945;BME280;63122;52.424;13.458;2023-02-16T00:12:26;101733.41;;;3.69;100.00
41945;BME280;63122;52.424;13.458;2023-02-16T00:14:38;101742.38;;;3.63;100.00
41945;BME280;63122;52.424;13.458;2023-02-16T00:16:51;101741.63;;;3.61;100.00
41945;BME280;63122;52.424;13.458;2023-02-16T00:18:47;101743.31;;;3.62;100.00
41945;BME280;63122;52.424;13.458;2023-02-16T00:20:42;101737.50;;;3.57;100.00
41945;BME280;63122;52.424;13.458;2023-02-16T00:22:37;101740.72;;;3.44;100.00
41945;BME280;63122;52.424;13.458;2023-02-16T00:24:33;101738.75;;;3.50;100.00
41945;BME280;63122;52.424;13.458;2023-02-16T00:26:34;101733.91;;;3.42;100.00
41945;BME280;63122;52.424;13.458;2023-02-16T00:28:36;101731.31;;;3.42;100.00
41945;BME280;63122;52.424;13.458;2023-02-16T00:30:32;101733.53;;;3.32;100.00
41945;BME280;63122;52.424;13.458;2023-02-16T00:32:27;101734.47;;;3.31;100.00
41945;BME280;63122;52.424;13.458;2023-02-16T00:34:29;101734.53;;;3.29;100.00
41945;BME280;63122;52.424;13.458;2023-02-16T00:36:26;101736.75;;;3.20;100.00
41945;BME280;63122;52.424;13.458;2023-02-16T00:38:21;101741.03;;;3.21;100.00
41945;BME280;63122;52.424;13.458;2023-02-16T00:40:17;101732.88;;;3.11;100.00
41945;BME280;63122;52.424;13.458;2023-02-16T00:42:18;101736.13;;;3.14;100.00
41945;BME280;63122;52.424;13.458;2023-02-16T00:44:20;101734.22;;;3.18;100.00
41945;BME280;63122;52.424;13.458;2023-02-16T00:46:20;101735.53;;;3.09;100.00
41945;BME280;63122;52.424;13.458;2023-02-16T00:48:16;101738.13;;;3.09;100.00
41945;BME280;63122;52.424;13.458;2023-02-16T00:50:14;101738.69;;;3.16;100.00
41945;BME280;63122;52.424;13.458;2023-02-16T00:52:25;101741.34;;;3.14;100.00
41945;BME280;63122;52.424;13.458;2023-02-16T00:54:21;101733.78;;;3.10;100.00
41945;BME280;63122;52.424;13.458;2023-02-16T00:56:18;101733.84;;;3.08;100.00
41945;BME280;63122;52.424;13.458;2023-02-16T00:58:21;101729.50;;;3.09;100.00
41945;BME280;63122;52.424;13.458;2023-02-16T01:00:20;101732.31;;;3.04;100.00
41945;BME280;63122;52.424;13.458;2023-02-16T01:02:22;101729.94;;;2.99;100.00
41945;BME280;63122;52.424;13.458;2023-02-16T01:04:21;101728.25;;;2.98;100.00
41945;BME280;63122;52.424;13.458;2023-02-16T01:06:17;101736.16;;;2.97;100.00
41945;BME280;63122;52.424;13.458;2023-02-16T01:08:27;101729.31;;;2.94;100.00
41945;BME280;63122;52.424;13.458;2023-02-16T01:10:39;101728.75;;;2.87;100.00
41945;BME280;63122;52.424;13.458;2023-02-16T01:13:04;101729.00;;;2.83;100.00
41945;BME280;63122;52.424;13.458;2023-02-16T01:15:09;101730.69;;;2.84;100.00
41945;BME280;63122;52.424;13.458;2023-02-16T01:17:08;101729.69;;;2.86;100.00
41945;BME280;63122;52.424;13.458;2023-02-16T01:19:04;101738.44;;;2.85;100.00
41945;BME280;63122;52.424;13.458;2023-02-16T01:21:05;101727.22;;;2.83;100.00
41945;BME280;63122;52.424;13.458;2023-02-16T01:23:07;101724.00;;;2.78;100.00
41945;BME280;63122;52.424;13.458;2023-02-16T01:25:04;101730.84;;;2.81;100.00
41945;BME280;63122;52.424;13.458;2023-02-16T01:26:59;101723.81;;;2.83;100.00
41945;BME280;63122;52.424;13.458;2023-02-16T01:28:54;101723.03;;;2.81;100.00
41945;BME280;63122;52.424;13.458;2023-02-16T01:30:52;101724.06;;;2.77;100.00
41945;BME280;63122;52.424;13.458;2023-02-16T01:32:47;101724.06;;;2.77;100.00
41945;BME280;63122;52.424;13.458;2023-02-16T01:34:55;101721.47;;;2.77;100.00
41945;BME280;63122;52.424;13.458;2023-02-16T01:36:50;101715.47;;;2.74;100.00
41945;BME280;63122;52.424;13.458;2023-02-16T01:38:45;101721.09;;;2.67;100.00
41945;BME280;63122;52.424;13.458;2023-02-16T01:40:44;101720.22;;;2.66;100.00
41945;BME280;63122;52.424;13.458;2023-02-16T01:42:50;101714.97;;;2.68;100.00
41945;BME280;63122;52.424;13.458;2023-02-16T01:44:51;101716.91;;;2.63;100.00
41945;BME280;63122;52.424;13.458;2023-02-16T01:46:51;101713.69;;;2.57;100.00
41945;BME280;63122;52.424;13.458;2023-02-16T01:48:46;101712.88;;;2.57;100.00
41945;BME280;63122;52.424;13.458;2023-02-16T01:50:46;101706.03;;;2.54;100.00
41945;BME280;63122;52.424;13.458;2023-02-16T01:52:44;101710.47;;;2.52;100.00
41945;BME280;63122;52.424;13.458;2023-02-16T01:54:43;101716.13;;;2.43;100.00
41945;BME280;63122;52.424;13.458;2023-02-16T01:56:46;101703.13;;;2.43;100.00
41945;BME280;63122;52.424;13.458;2023-02-16T01:58:45;101707.56;;;2.41;100.00
41945;BME280;63122;52.424;13.458;2023-02-16T02:03:11;101703.31;;;2.38;100.00
41945;BME280;63122;52.424;13.458;2023-02-16T02:05:23;101708.88;;;2.30;100.00
41945;BME280;63122;52.424;13.458;2023-02-16T02:07:36;101714.94;;;2.31;100.00
41945;BME280;63122;52.424;13.458;2023-02-16T02:09:39;101707.91;;;2.33;100.00
41945;BME280;63122;52.424;13.458;2023-02-16T02:11:39;101702.22;;;2.25;100.00
41945;BME280;63122;52.424;13.458;2023-02-16T02:13:40;101701.38;;;2.24;100.00
41945;BME280;63122;52.424;13.458;2023-02-16T02:15:38;101700.66;;;2.21;100.00
41945;BME280;63122;52.424;13.458;2023-02-16T02:17:33;101699.06;;;2.18;100.00
41945;BME280;63122;52.424;13.458;2023-02-16T02:19:40;101696.38;;;2.20;100.00
41945;BME280;63122;52.424;13.458;2023-02-16T02:21:54;101695.16;;;2.08;100.00
41945;BME280;63122;52.424;13.458;2023-02-16T02:26:49;101689.31;;;2.22;100.00
41945;BME280;63122;52.424;13.458;2023-02-16T02:28:59;101694.53;;;2.22;100.00
41945;BME280;63122;52.424;13.458;2023-02-16T02:31:00;101695.69;;;2.16;100.00
41945;BME280;63122;52.424;13.458;2023-02-16T02:33:16;101691.88;;;2.23;100.00
41945;BME280;63122;52.424;13.458;2023-02-16T02:35:21;101697.22;;;2.20;100.00
41945;BME280;63122;52.424;13.458;2023-02-16T02:37:39;101697.13;;;2.22;100.00
41945;BME280;63122;52.424;13.458;2023-02-16T02:39:54;101691.66;;;2.28;100.00
41945;BME280;63122;52.424;13.458;2023-02-16T02:41:59;101686.38;;;2.29;100.00
41945;BME280;63122;52.424;13.458;2023-02-16T02:43:59;101685.69;;;2.26;100.00
41945;BME280;63122;52.424;13.458;2023-02-16T02:46:02;101686.34;;;2.12;100.00
41945;BME280;63122;52.424;13.458;2023-02-16T02:48:00;101682.97;;;2.10;100.00
41945;BME280;63122;52.424;13.458;2023-02-16T02:49:56;101686.03;;;2.18;100.00
41945;BME280;63122;52.424;13.458;2023-02-16T02:51:51;101692.16;;;2.17;100.00
41945;BME280;63122;52.424;13.458;2023-02-16T02:53:47;101682.81;;;2.13;100.00
41945;BME280;63122;52.424;13.458;2023-02-16T02:56:05;101686.19;;;2.15;100.00
41945;BME280;63122;52.424;13.458;2023-02-16T02:58:17;101679.34;;;2.12;100.00
41945;BME280;63122;52.424;13.458;2023-02-16T03:00:29;101675.91;;;2.12;100.00
41945;BME280;63122;52.424;13.458;2023-02-16T03:02:35;101676.13;;;2.07;100.00
41945;BME280;63122;52.424;13.458;2023-02-16T03:04:32;101669.84;;;2.11;100.00
41945;BME280;63122;52.424;13.458;2023-02-16T03:06:31;101664.84;;;2.07;100.00
41945;BME280;63122;52.424;13.458;2023-02-16T03:08:31;101671.75;;;2.08;100.00
41945;BME280;63122;52.424;13.458;2023-02-16T03:10:28;101670.81;;;2.09;100.00
41945;BME280;63122;52.424;13.458;2023-02-16T03:12:36;101669.22;;;2.06;100.00
41945;BME280;63122;52.424;13.458;2023-02-16T03:14:44;101676.84;;;2.11;100.00
41945;BME280;63122;52.424;13.458;2023-02-16T03:16:42;101667.25;;;2.11;100.00
41945;BME280;63122;52.424;13.458;2023-02-16T03:19:27;101675.91;;;2.12;100.00
41945;BME280;63122;52.424;13.458;2023-02-16T03:24:56;101675.06;;;2.11;100.00
41945;BME280;63122;52.424;13.458;2023-02-16T03:27:28;101674.16;;;2.12;100.00
41945;BME280;63122;52.424;13.458;2023-02-16T03:29:41;101663.81;;;2.11;100.00
41945;BME280;63122;52.424;13.458;2023-02-16T03:31:36;101666.41;;;2.11;100.00
41945;BME280;63122;52.424;13.458;2023-02-16T03:33:32;101670.72;;;2.12;100.00
41945;BME280;63122;52.424;13.458;2023-02-16T03:35:28;101668.16;;;2.10;100.00
41945;BME280;63122;52.424;13.458;2023-02-16T03:37:23;101663.25;;;2.04;100.00
41945;BME280;63122;52.424;13.458;2023-02-16T03:39:18;101673.09;;;1.97;100.00
41945;BME280;63122;52.424;13.458;2023-02-16T03:41:14;101670.63;;;1.94;100.00
41945;BME280;63122;52.424;13.458;2023-02-16T03:43:09;101666.97;;;1.98;100.00
41945;BME280;63122;52.424;13.458;2023-02-16T03:45:08;101679.00;;;2.01;100.00
41945;BME280;63122;52.424;13.458;2023-02-16T03:47:03;101677.09;;;2.05;100.00
41945;BME280;63122;52.424;13.458;2023-02-16T03:49:02;101678.88;;;2.04;100.00
41945;BME280;63122;52.424;13.458;2023-02-16T03:50:57;101678.00;;;2.04;100.00
41945;BME280;63122;52.424;13.458;2023-02-16T03:52:53;101678.88;;;2.04;100.00
41945;BME280;63122;52.424;13.458;2023-02-16T03:54:58;101670.34;;;2.00;100.00
41945;BME280;63122;52.424;13.458;2023-02-16T03:56:53;101671.34;;;1.98;100.00
41945;BME280;63122;52.424;13.458;2023-02-16T03:58:48;101669.16;;;1.89;100.00
41945;BME280;63122;52.424;13.458;2023-02-16T04:00:46;101665.72;;;1.88;100.00
41945;BME280;63122;52.424;13.458;2023-02-16T04:02:41;101668.09;;;1.93;100.00
41945;BME280;63122;52.424;13.458;2023-02-16T04:04:37;101669.88;;;1.92;100.00
41945;BME280;63122;52.424;13.458;2023-02-16T04:06:32;101670.78;;;1.91;100.00
41945;BME280;63122;52.424;13.458;2023-02-16T04:08:28;101668.38;;;1.86;100.00
41945;BME280;63122;52.424;13.458;2023-02-16T04:10:24;101665.34;;;1.77;100.00
41945;BME280;63122;52.424;13.458;2023-02-16T04:12:19;101673.09;;;1.78;100.00
41945;BME280;63122;52.424;13.458;2023-02-16T04:14:28;101672.38;;;1.75;100.00
41945;BME280;63122;52.424;13.458;2023-02-16T04:16:25;101662.06;;;1.73;100.00
41945;BME280;63122;52.424;13.458;2023-02-16T04:18:21;101670.69;;;1.73;100.00
41945;BME280;63122;52.424;13.458;2023-02-16T04:20:17;101673.28;;;1.73;100.00
41945;BME280;63122;52.424;13.458;2023-02-16T04:22:13;101675.91;;;1.73;100.00
41945;BME280;63122;52.424;13.458;2023-02-16T04:24:08;101676.81;;;1.72;100.00
41945;BME280;63122;52.424;13.458;2023-02-16T04:26:04;101673.44;;;1.70;100.00
41945;BME280;63122;52.424;13.458;2023-02-16T04:27:59;101667.47;;;1.68;100.00
41945;BME280;63122;52.424;13.458;2023-02-16T04:29:54;101668.38;;;1.67;100.00
41945;BME280;63122;52.424;13.458;2023-02-16T04:31:51;101660.56;;;1.67;100.00
41945;BME280;63122;52.424;13.458;2023-02-16T04:33:47;101666.69;;;1.66;100.00
41945;BME280;63122;52.424;13.458;2023-02-16T04:35:42;101666.69;;;1.66;100.00
41945;BME280;63122;52.424;13.458;2023-02-16T04:37:37;101665.91;;;1.64;100.00
41945;BME280;63122;52.424;13.458;2023-02-16T04:39:32;101671.94;;;1.65;100.00
41945;BME280;63122;52.424;13.458;2023-02-16T04:41:27;101665.84;;;1.66;100.00
41945;BME280;63122;52.424;13.458;2023-02-16T04:43:22;101666.69;;;1.66;100.00
41945;BME280;63122;52.424;13.458;2023-02-16T04:45:18;101661.69;;;1.62;100.00
41945;BME280;63122;52.424;13.458;2023-02-16T04:47:16;101667.94;;;1.57;100.00
41945;BME280;63122;52.424;13.458;2023-02-16T04:49:13;101668.84;;;1.56;100.00
41945;BME280;63122;52.424;13.458;2023-02-16T04:51:08;101663.66;;;1.56;100.00
41945;BME280;63122;52.424;13.458;2023-02-16T04:53:04;101665.63;;;1.51;100.00
41945;BME280;63122;52.424;13.458;2023-02-16T04:54:59;101662.25;;;1.49;100.00
41945;BME280;63122;52.424;13.458;2023-02-16T04:56:55;101658.63;;;1.52;100.00
41945;BME280;63122;52.424;13.458;2023-02-16T04:58:50;101658.09;;;1.45;100.00
41945;BME280;63122;52.424;13.458;2023-02-16T05:00:46;101652.66;;;1.50;100.00
41945;BME280;63122;52.424;13.458;2023-02-16T05:02:44;101653.81;;;1.44;100.00
41945;BME280;63122;52.424;13.458;2023-02-16T05:04:40;101653.09;;;1.40;100.00
41945;BME280;63122;52.424;13.458;2023-02-16T05:06:36;101653.09;;;1.40;100.00
41945;BME280;63122;52.424;13.458;2023-02-16T05:08:32;101654.78;;;1.41;100.00
41945;BME280;63122;52.424;13.458;2023-02-16T05:10:27;101655.81;;;1.37;100.00
41945;BME280;63122;52.424;13.458;2023-02-16T05:12:23;101649.72;;;1.38;100.00
41945;BME280;63122;52.424;13.458;2023-02-16T05:14:32;101663.91;;;1.31;100.00
41945;BME280;63122;52.424;13.458;2023-02-16T05:16:34;101656.09;;;1.31;100.00
41945;BME280;63122;52.424;13.458;2023-02-16T05:18:32;101662.84;;;1.35;100.00
41945;BME280;63122;52.424;13.458;2023-02-16T05:20:27;101666.63;;;1.28;100.00
41945;BME280;63122;52.424;13.458;2023-02-16T05:22:40;101667.66;;;1.24;100.00
41945;BME280;63122;52.424;13.458;2023-02-16T05:24:37;101676.50;;;1.20;100.00
41945;BME280;63122;52.424;13.458;2023-02-16T05:26:32;101675.13;;;1.11;100.00
41945;BME280;63122;52.424;13.458;2023-02-16T05:28:27;101676.91;;;1.10;100.00
41945;BME280;63122;52.424;13.458;2023-02-16T05:30:23;101680.41;;;1.09;100.00
41945;BME280;63122;52.424;13.458;2023-02-16T05:32:18;101684.69;;;1.10;100.00
41945;BME280;63122;52.424;13.458;2023-02-16T05:34:17;101680.47;;;1.08;100.00
41945;BME280;63122;52.424;13.458;2023-02-16T05:36:12;101678.72;;;1.08;100.00
41945;BME280;63122;52.424;13.458;2023-02-16T05:38:07;101679.50;;;1.10;100.00
41945;BME280;63122;52.424;13.458;2023-02-16T05:40:03;101678.47;;;1.14;100.00
41945;BME280;63122;52.424;13.458;2023-02-16T05:41:58;101676.63;;;1.17;100.00
41945;BME280;63122;52.424;13.458;2023-02-16T05:43:55;101668.91;;;1.15;100.00
41945;BME280;63122;52.424;13.458;2023-02-16T05:45:50;101675.84;;;1.14;100.00
41945;BME280;63122;52.424;13.458;2023-02-16T05:47:45;101671.56;;;1.13;100.00
41945;BME280;63122;52.424;13.458;2023-02-16T05:49:43;101677.41;;;1.19;100.00
41945;BME280;63122;52.424;13.458;2023-02-16T05:51:38;101666.81;;;1.23;100.00
41945;BME280;63122;52.424;13.458;2023-02-16T05:53:33;101659.03;;;1.23;100.00
41945;BME280;63122;52.424;13.458;2023-02-16T05:55:28;101662.66;;;1.19;100.00
41945;BME280;63122;52.424;13.458;2023-02-16T05:57:24;101660.06;;;1.19;100.00
41945;BME280;63122;52.424;13.458;2023-02-16T05:59:19;101661.69;;;1.22;100.00
41945;BME280;63122;52.424;13.458;2023-02-16T06:01:14;101667.00;;;1.19;100.00
41945;BME280;63122;52.424;13.458;2023-02-16T06:03:09;101677.41;;;1.19;100.00
41945;BME280;63122;52.424;13.458;2023-02-16T06:05:07;101680.22;;;1.14;100.00
41945;BME280;63122;52.424;13.458;2023-02-16T06:07:02;101688.34;;;1.06;100.00
41945;BME280;63122;52.424;13.458;2023-02-16T06:08:58;101686.06;;;0.98;100.00
41945;BME280;63122;52.424;13.458;2023-02-16T06:10:53;101688.69;;;0.97;100.00
41945;BME280;63122;52.424;13.458;2023-02-16T06:12:49;101692.47;;;0.90;100.00
41945;BME280;63122;52.424;13.458;2023-02-16T06:14:44;101689.19;;;0.86;100.00
41945;BME280;63122;52.424;13.458;2023-02-16T06:16:42;101697.81;;;0.86;100.00
41945;BME280;63122;52.424;13.458;2023-02-16T06:18:38;101695.06;;;0.90;100.00
41945;BME280;63122;52.424;13.458;2023-02-16T06:20:38;101688.06;;;0.92;100.00
41945;BME280;63122;52.424;13.458;2023-02-16T06:22:44;101686.31;;;0.92;100.00
41945;BME280;63122;52.424;13.458;2023-02-16T06:24:43;101682.09;;;0.90;100.00
41945;BME280;63122;52.424;13.458;2023-02-16T06:26:39;101686.50;;;0.88;100.00
41945;BME280;63122;52.424;13.458;2023-02-16T06:28:37;101688.13;;;0.90;100.00
41945;BME280;63122;52.424;13.458;2023-02-16T06:30:32;101692.59;;;0.86;100.00
41945;BME280;63122;52.424;13.458;2023-02-16T06:32:28;101695.28;;;0.85;100.00
41945;BME280;63122;52.424;13.458;2023-02-16T06:34:24;101690.09;;;0.85;100.00
41945;BME280;63122;52.424;13.458;2023-02-16T06:36:23;101702.03;;;0.89;100.00
41945;BME280;63122;52.424;13.458;2023-02-16T06:38:18;101702.16;;;0.86;100.00
41945;BME280;63122;52.424;13.458;2023-02-16T06:40:16;101701.13;;;0.90;100.00
41945;BME280;63122;52.424;13.458;2023-02-16T06:42:27;101693.81;;;1.00;100.00
41945;BME280;63122;52.424;13.458;2023-02-16T06:44:22;101700.59;;;1.03;100.00
41945;BME280;63122;52.424;13.458;2023-02-16T06:46:17;101695.28;;;1.06;100.00
41945;BME280;63122;52.424;13.458;2023-02-16T06:48:13;101704.97;;;1.02;100.00
41945;BME280;63122;52.424;13.458;2023-02-16T06:50:10;101696.31;;;1.02;100.00
41945;BME280;63122;52.424;13.458;2023-02-16T06:52:08;101705.75;;;1.04;100.00
41945;BME280;63122;52.424;13.458;2023-02-16T06:54:03;101699.56;;;1.07;100.00
41945;BME280;63122;52.424;13.458;2023-02-16T06:55:58;101700.47;;;1.06;100.00
41945;BME280;63122;52.424;13.458;2023-02-16T06:57:54;101704.91;;;1.04;100.00
41945;BME280;63122;52.424;13.458;2023-02-16T06:59:49;101706.53;;;1.06;100.00
41945;BME280;63122;52.424;13.458;2023-02-16T07:01:44;101704.72;;;1.08;100.00
41945;BME280;63122;52.424;13.458;2023-02-16T07:03:39;101702.94;;;1.09;100.00
41945;BME280;63122;52.424;13.458;2023-02-16T07:05:36;101702.16;;;1.07;100.00
41945;BME280;63122;52.424;13.458;2023-02-16T07:07:34;101696.84;;;1.10;100.00
41945;BME280;63122;52.424;13.458;2023-02-16T07:09:29;101698.59;;;1.09;100.00
41945;BME280;63122;52.424;13.458;2023-02-16T07:11:24;101696.06;;;1.08;100.00
41945;BME280;63122;52.424;13.458;2023-02-16T07:13:20;101697.81;;;1.07;100.00
41945;BME280;63122;52.424;13.458;2023-02-16T07:15:16;101701.97;;;1.11;100.00
41945;BME280;63122;52.424;13.458;2023-02-16T07:17:11;101703.53;;;1.15;100.00
41945;BME280;63122;52.424;13.458;2023-02-16T07:19:07;101701.84;;;1.14;100.00
41945;BME280;63122;52.424;13.458;2023-02-16T07:21:02;101704.25;;;1.19;100.00
41945;BME280;63122;52.424;13.458;2023-02-16T07:23:01;101708.69;;;1.17;100.00
41945;BME280;63122;52.424;13.458;2023-02-16T07:24:56;101699.13;;;1.18;100.00
41945;BME280;63122;52.424;13.458;2023-02-16T07:26:52;101700.66;;;1.22;100.00
41945;BME280;63122;52.424;13.458;2023-02-16T07:28:47;101698.84;;;1.24;100.00
41945;BME280;63122;52.424;13.458;2023-02-16T07:30:43;101702.94;;;1.29;100.00
41945;BME280;63122;52.424;13.458;2023-02-16T07:32:38;101707.06;;;1.35;100.00
41945;BME280;63122;52.424;13.458;2023-02-16T07:34:33;101701.25;;;1.28;100.00
41945;BME280;63122;52.424;13.458;2023-02-16T07:36:29;101690.88;;;1.28;100.00
41945;BME280;63122;52.424;13.458;2023-02-16T07:38:26;101702.00;;;1.32;100.00
41945;BME280;63122;52.424;13.458;2023-02-16T07:40:22;101689.63;;;1.37;100.00
41945;BME280;63122;52.424;13.458;2023-02-16T07:42:17;101686.75;;;1.43;100.00
41945;BME280;63122;52.424;13.458;2023-02-16T07:44:12;101688.13;;;1.52;100.00
41945;BME280;63122;52.424;13.458;2023-02-16T07:46:07;101684.47;;;1.56;100.00
41945;BME280;63122;52.424;13.458;2023-02-16T07:48:03;101692.25;;;1.56;100.00
41945;BME280;63122;52.424;13.458;2023-02-16T07:49:58;101696.63;;;1.56;100.00
41945;BME280;63122;52.424;13.458;2023-02-16T07:51:57;101690.53;;;1.57;100.00
41945;BME280;63122;52.424;13.458;2023-02-16T07:53:55;101690.13;;;1.46;100.00
41945;BME280;63122;52.424;13.458;2023-02-16T07:55:50;101687.63;;;1.44;100.00
41945;BME280;63122;52.424;13.458;2023-02-16T07:57:45;101683.97;;;1.48;100.00
41945;BME280;63122;52.424;13.458;2023-02-16T07:59:45;101686.41;;;1.51;100.00
41945;BME280;63122;52.424;13.458;2023-02-16T08:01:40;101691.28;;;1.59;100.00
41945;BME280;63122;52.424;13.458;2023-02-16T08:03:36;101699.59;;;1.67;100.00
41945;BME280;63122;52.424;13.458;2023-02-16T08:05:33;101695.50;;;1.62;100.00
41945;BME280;63122;52.424;13.458;2023-02-16T08:07:28;101687.94;;;1.76;100.00
41945;BME280;63122;52.424;13.458;2023-02-16T08:09:25;101694.69;;;1.80;100.00
41945;BME280;63122;52.424;13.458;2023-02-16T08:11:22;101692.72;;;1.85;100.00
41945;BME280;63122;52.424;13.458;2023-02-16T08:13:18;101702.78;;;1.93;100.00
41945;BME280;63122;52.424;13.458;2023-02-16T08:15:13;101702.84;;;1.92;100.00
41945;BME280;63122;52.424;13.458;2023-02-16T08:17:08;101697.16;;;2.03;100.00
41945;BME280;63122;52.424;13.458;2023-02-16T08:19:04;101691.13;;;2.02;100.00
41945;BME280;63122;52.424;13.458;2023-02-16T08:21:06;101707.06;;;1.94;100.00
41945;BME280;63122;52.424;13.458;2023-02-16T08:23:04;101708.91;;;1.92;100.00
41945;BME280;63122;52.424;13.458;2023-02-16T08:25:05;101708.72;;;1.97;100.00
41945;BME280;63122;52.424;13.458;2023-02-16T08:27:02;101705.72;;;2.05;100.00
41945;BME280;63122;52.424;13.458;2023-02-16T08:28:58;101707.94;;;2.14;100.00
41945;BME280;63122;52.424;13.458;2023-02-16T08:30:53;101712.63;;;2.25;100.00
41945;BME280;63122;52.424;13.458;2023-02-16T08:32:48;101718.38;;;2.32;100.00
41945;BME280;63122;52.424;13.458;2023-02-16T08:34:44;101716.06;;;2.25;100.00
41945;BME280;63122;52.424;13.458;2023-02-16T08:36:41;101715.16;;;2.26;100.00
41945;BME280;63122;52.424;13.458;2023-02-16T08:38:37;101703.47;;;2.35;100.00
41945;BME280;63122;52.424;13.458;2023-02-16T08:40:37;101711.19;;;2.56;100.00
41945;BME280;63122;52.424;13.458;2023-02-16T08:42:32;101706.75;;;2.58;100.00
41945;BME280;63122;52.424;13.458;2023-02-16T08:44:27;101702.84;;;2.84;100.00
41945;BME280;63122;52.424;13.458;2023-02-16T08:46:23;101707.75;;;2.91;100.00
41945;BME280;63122;52.424;13.458;2023-02-16T08:48:19;101708.22;;;2.81;100.00
41945;BME280;63122;52.424;13.458;2023-02-16T08:50:14;101703.38;;;2.73;100.00
41945;BME280;63122;52.424;13.458;2023-02-16T08:52:10;101695.03;;;2.84;100.00
41945;BME280;63122;52.424;13.458;2023-02-16T08:54:06;101691.44;;;3.05;100.00
41945;BME280;63122;52.424;13.458;2023-02-16T08:56:06;101698.25;;;3.25;100.00
41945;BME280;63122;52.424;13.458;2023-02-16T08:58:01;101691.19;;;3.27;100.00
41945;BME280;63122;52.424;13.458;2023-02-16T08:59:57;101695.16;;;3.34;100.00
41945;BME280;63122;52.424;13.458;2023-02-16T09:02:04;101685.22;;;3.58;100.00
41945;BME280;63122;52.424;13.458;2023-02-16T09:03:59;101684.47;;;3.72;100.00
41945;BME280;63122;52.424;13.458;2023-02-16T09:05:59;101689.97;;;3.68;100.00
41945;BME280;63122;52.424;13.458;2023-02-16T09:07:56;101688.94;;;3.70;100.00
41945;BME280;63122;52.424;13.458;2023-02-16T09:09:51;101681.97;;;3.71;100.00
41945;BME280;63122;52.424;13.458;2023-02-16T09:11:49;101687.34;;;3.68;100.00
41945;BME280;63122;52.424;13.458;2023-02-16T09:13:44;101686.44;;;3.69;100.00
41945;BME280;63122;52.424;13.458;2023-02-16T09:15:39;101685.53;;;3.86;100.00
41945;BME280;63122;52.424;13.458;2023-02-16T09:17:35;101686.88;;;3.93;100.00
41945;BME280;63122;52.424;13.458;2023-02-16T09:19:30;101691.41;;;3.89;100.00
41945;BME280;63122;52.424;13.458;2023-02-16T09:21:25;101683.69;;;4.04;100.00
41945;BME280;63122;52.424;13.458;2023-02-16T09:23:23;101683.59;;;4.22;100.00
41945;BME280;63122;52.424;13.458;2023-02-16T09:25:18;101685.25;;;4.55;100.00
41945;BME280;63122;52.424;13.458;2023-02-16T09:27:18;101685.69;;;4.47;100.00
41945;BME280;63122;52.424;13.458;2023-02-16T09:29:13;101686.44;;;4.49;100.00
41945;BME280;63122;52.424;13.458;2023-02-16T09:31:10;101678.81;;;4.60;100.00
41945;BME280;63122;52.424;13.458;2023-02-16T09:33:05;101686.47;;;4.94;100.00
41945;BME280;63122;52.424;13.458;2023-02-16T09:35:01;101682.13;;;4.95;100.00
41945;BME280;63122;52.424;13.458;2023-02-16T09:36:56;101671.03;;;5.20;100.00
41945;BME280;63122;52.424;13.458;2023-02-16T09:38:52;101680.56;;;5.21;100.00
41945;BME280;63122;52.424;13.458;2023-02-16T09:40:47;101692.09;;;5.02;100.00
41945;BME280;63122;52.424;13.458;2023-02-16T09:42:55;101678.31;;;5.15;100.00
41945;BME280;63122;52.424;13.458;2023-02-16T09:44:57;101677.63;;;5.11;100.00
41945;BME280;63122;52.424;13.458;2023-02-16T09:46:57;101669.28;;;5.21;100.00
41945;BME280;63122;52.424;13.458;2023-02-16T09:48:55;101688.81;;;5.44;100.00
41945;BME280;63122;52.424;13.458;2023-02-16T09:50:51;101679.00;;;5.62;100.00
41945;BME280;63122;52.424;13.458;2023-02-16T09:52:52;101682.78;;;5.85;100.00
41945;BME280;63122;52.424;13.458;2023-02-16T09:54:53;101687.13;;;5.86;100.00
41945;BME280;63122;52.424;13.458;2023-02-16T09:56:54;101678.31;;;6.02;100.00
41945;BME280;63122;52.424;13.458;2023-02-16T09:58:56;101672.66;;;6.23;100.00
41945;BME280;63122;52.424;13.458;2023-02-16T10:00:56;101676.19;;;6.49;100.00
41945;BME280;63122;52.424;13.458;2023-02-16T10:02:59;101672.88;;;6.60;100.00
41945;BME280;63122;52.424;13.458;2023-02-16T10:05:11;101666.53;;;6.37;100.00
41945;BME280;63122;52.424;13.458;2023-02-16T10:07:14;101666.22;;;6.41;100.00
41945;BME280;63122;52.424;13.458;2023-02-16T10:09:18;101662.84;;;6.67;100.00
41945;BME280;63122;52.424;13.458;2023-02-16T10:11:21;101670.03;;;7.03;100.00
41945;BME280;63122;52.424;13.458;2023-02-16T10:13:41;101672.13;;;7.24;100.00
41945;BME280;63122;52.424;13.458;2023-02-16T10:15:47;101668.56;;;7.25;100.00
41945;BME280;63122;52.424;13.458;2023-02-16T10:17:47;101669.72;;;7.21;100.00
41945;BME280;63122;52.424;13.458;2023-02-16T10:19:48;101667.94;;;7.34;100.00
41945;BME280;63122;52.424;13.458;2023-02-16T10:21:48;101668.13;;;7.57;100.00